sensor_id;sensor_type;location;lat;lon;timestamp;pressure;altitude;pressure_sealevel;temperature;humidity
12722;BME280;6425;50.316;8.114;2024-02-21T00:00:00;999;;;7.3;100
12722;BME280;6425;50.316;8.114;2024-02-21T00:03:00;999;;;7.3;100
12722;BME280;6425;50.316;8.114;2024-02-21T00:06:00;999;;;7.4;100
12722;BME280;6425;50.316;8.114;2024-02-21T00:09:00;999;;;7.4;100
12722;BME280;6425;50.316;8.114;2024-02-21T00:12:00;999;;;7;100
12722;BME280;6425;50.316;8.114;2024-02-21T00:15:00;999;;;7;100
12722;BME280;6425;50.316;8.114;2024-02-21T00:18:00;999;;;7.2;100
12722;BME280;6425;50.316;8.114;2024-02-21T00:21:00;999;;;7.2;100
12722;BME280;6425;50.316;8.114;2024-02-21T00:24:00;999;;;7.4;100
12722;BME280;6425;50.316;8.114;2024-02-21T00:27:00;999;;;7.9;100
12722;BME280;6425;50.316;8.114;2024-02-21T00:30:00;999;;;8;100
12722;BME280;6425;50.316;8.114;2024-02-21T00:33:00;999;;;7.9;100
12722;BME280;6425;50.316;8.114;2024-02-21T00:36:00;999;;;7.8;100
12722;BME280;6425;50.316;8.114;2024-02-21T00:39:00;999;;;8;100
12722;BME280;6425;50.316;8.114;2024-02-21T00:42:00;999;;;7.4;100
12722;BME280;6425;50.316;8.114;2024-02-21T00:45:00;999;;;7.7;100
12722;BME280;6425;50.316;8.114;2024-02-21T00:48:00;999;;;7.1;100
12722;BME280;6425;50.316;8.114;2024-02-21T00:51:02;999;;;6.4;100
12722;BME280;6425;50.316;8.114;2024-02-21T00:54:00;999;;;6.4;100
12722;BME280;6425;50.316;8.114;2024-02-21T00:57:00;999;;;6.4;100
12722;BME280;6425;50.316;8.114;2024-02-21T01:00:00;999;;;6.5;100
12722;BME280;6425;50.316;8.114;2024-02-21T01:03:00;999;;;6.6;100
12722;BME280;6425;50.316;8.114;2024-02-21T01:06:00;999;;;6.5;100
12722;BME280;6425;50.316;8.114;2024-02-21T01:09:00;999;;;6.8;100
12722;BME280;6425;50.316;8.114;2024-02-21T01:12:00;999;;;7;100
12722;BME280;6425;50.316;8.114;2024-02-21T01:15:01;999;;;7.3;100
12722;BME280;6425;50.316;8.114;2024-02-21T01:18:00;999;;;7.3;100
12722;BME280;6425;50.316;8.114;2024-02-21T01:21:00;999;;;7.7;100
12722;BME280;6425;50.316;8.114;2024-02-21T01:24:00;998;;;7.8;100
12722;BME280;6425;50.316;8.114;2024-02-21T01:27:01;998;;;7.8;100
12722;BME280;6425;50.316;8.114;2024-02-21T01:30:00;998;;;7.6;100
12722;BME280;6425;50.316;8.114;2024-02-21T01:33:00;998;;;7.7;100
12722;BME280;6425;50.316;8.114;2024-02-21T01:36:00;998;;;7.6;100
12722;BME280;6425;50.316;8.114;2024-02-21T01:39:00;998;;;7.4;100
12722;BME280;6425;50.316;8.114;2024-02-21T01:42:00;998;;;7.2;100
12722;BME280;6425;50.316;8.114;2024-02-21T01:45:00;998;;;7;100
12722;BME280;6425;50.316;8.114;2024-02-21T01:48:00;998;;;7.3;100
12722;BME280;6425;50.316;8.114;2024-02-21T01:51:00;998;;;7.7;100
12722;BME280;6425;50.316;8.114;2024-02-21T01:54:00;998;;;7.3;100
12722;BME280;6425;50.316;8.114;2024-02-21T01:57:00;998;;;6.7;100
12722;BME280;6425;50.316;8.114;2024-02-21T02:00:00;998;;;6.4;100
12722;BME280;6425;50.316;8.114;2024-02-21T02:03:00;998;;;6.4;100
12722;BME280;6425;50.316;8.114;2024-02-21T02:06:00;998;;;6.5;100
12722;BME280;6425;50.316;8.114;2024-02-21T02:09:00;998;;;6.3;100
12722;BME280;6425;50.316;8.114;2024-02-21T02:12:00;998;;;6.4;100
12722;BME280;6425;50.316;8.114;2024-02-21T02:15:00;998;;;6.5;100
12722;BME280;6425;50.316;8.114;2024-02-21T02:18:00;998;;;6.4;100
12722;BME280;6425;50.316;8.114;2024-02-21T02:21:00;998;;;6.7;100
12722;BME280;6425;50.316;8.114;2024-02-21T02:24:00;998;;;6.8;100
12722;BME280;6425;50.316;8.114;2024-02-21T02:27:01;998;;;6.7;100
12722;BME280;6425;50.316;8.114;2024-02-21T02:30:00;998;;;6.4;100
12722;BME280;6425;50.316;8.114;2024-02-21T02:33:00;998;;;6.6;100
12722;BME280;6425;50.316;8.114;2024-02-21T02:36:00;998;;;7;100
12722;BME280;6425;50.316;8.114;2024-02-21T02:39:00;998;;;6.6;100
12722;BME280;6425;50.316;8.114;2024-02-21T02:42:00;998;;;6.7;100
12722;BME280;6425;50.316;8.114;2024-02-21T02:45:00;998;;;6.3;100
12722;BME280;6425;50.316;8.114;2024-02-21T02:48:00;998;;;6.1;100
12722;BME280;6425;50.316;8.114;2024-02-21T02:51:00;998;;;6.2;100
12722;BME280;6425;50.316;8.114;2024-02-21T02:54:00;997;;;6.2;100
12722;BME280;6425;50.316;8.114;2024-02-21T02:57:00;997;;;6.3;100
12722;BME280;6425;50.316;8.114;2024-02-21T03:00:00;997;;;6.4;100
12722;BME280;6425;50.316;8.114;2024-02-21T03:03:00;997;;;6.5;100
12722;BME280;6425;50.316;8.114;2024-02-21T03:06:00;997;;;6.6;100
12722;BME280;6425;50.316;8.114;2024-02-21T03:09:00;997;;;6.9;100
12722;BME280;6425;50.316;8.114;2024-02-21T03:12:00;997;;;7.2;100
12722;BME280;6425;50.316;8.114;2024-02-21T03:15:02;997;;;7.4;100
12722;BME280;6425;50.316;8.114;2024-02-21T03:18:00;997;;;7.6;100
12722;BME280;6425;50.316;8.114;2024-02-21T03:21:00;997;;;7.7;100
12722;BME280;6425;50.316;8.114;2024-02-21T03:24:00;997;;;7.3;100
12722;BME280;6425;50.316;8.114;2024-02-21T03:27:00;997;;;6.7;100
12722;BME280;6425;50.316;8.114;2024-02-21T03:30:00;997;;;6.5;100
12722;BME280;6425;50.316;8.114;2024-02-21T03:33:00;997;;;6.5;100
12722;BME280;6425;50.316;8.114;2024-02-21T03:36:00;997;;;6.4;100
12722;BME280;6425;50.316;8.114;2024-02-21T03:39:00;997;;;6.4;100
12722;BME280;6425;50.316;8.114;2024-02-21T03:42:00;997;;;6.2;100
12722;BME280;6425;50.316;8.114;2024-02-21T03:45:00;997;;;6.2;100
12722;BME280;6425;50.316;8.114;2024-02-21T03:48:00;997;;;6.1;100
12722;BME280;6425;50.316;8.114;2024-02-21T03:51:00;997;;;6.2;100
12722;BME280;6425;50.316;8.114;2024-02-21T03:54:00;997;;;6.2;100
12722;BME280;6425;50.316;8.114;2024-02-21T03:57:00;997;;;6.3;100
12722;BME280;6425;50.316;8.114;2024-02-21T04:00:00;997;;;6.3;100
12722;BME280;6425;50.316;8.114;2024-02-21T04:03:00;997;;;6.5;100
12722;BME280;6425;50.316;8.114;2024-02-21T04:06:00;997;;;6.5;100
12722;BME280;6425;50.316;8.114;2024-02-21T04:09:00;997;;;6.7;100
12722;BME280;6425;50.316;8.114;2024-02-21T04:12:00;997;;;6.9;100
12722;BME280;6425;50.316;8.114;2024-02-21T04:15:00;997;;;6.6;100
12722;BME280;6425;50.316;8.114;2024-02-21T04:18:00;997;;;6.6;100
12722;BME280;6425;50.316;8.114;2024-02-21T04:21:00;997;;;6.4;100
12722;BME280;6425;50.316;8.114;2024-02-21T04:24:00;997;;;6.4;100
12722;BME280;6425;50.316;8.114;2024-02-21T04:27:00;997;;;6.4;100
12722;BME280;6425;50.316;8.114;2024-02-21T04:30:00;997;;;6.4;100
12722;BME280;6425;50.316;8.114;2024-02-21T04:33:00;997;;;6.6;100
12722;BME280;6425;50.316;8.114;2024-02-21T04:36:00;996;;;6.6;100
12722;BME280;6425;50.316;8.114;2024-02-21T04:39:00;996;;;6.5;100
12722;BME280;6425;50.316;8.114;2024-02-21T04:42:00;996;;;6.7;100
12722;BME280;6425;50.316;8.114;2024-02-21T04:45:00;996;;;6.8;100
12722;BME280;6425;50.316;8.114;2024-02-21T04:48:00;996;;;7.2;100
12722;BME280;6425;50.316;8.114;2024-02-21T04:51:00;996;;;7;100
12722;BME280;6425;50.316;8.114;2024-02-21T04:54:00;996;;;6.8;100
12722;BME280;6425;50.316;8.114;2024-02-21T04:57:00;996;;;6.6;100
12722;BME280;6425;50.316;8.114;2024-02-21T05:00:00;996;;;6.3;100
12722;BME280;6425;50.316;8.114;2024-02-21T05:03:00;996;;;6.2;100
12722;BME280;6425;50.316;8.114;2024-02-21T05:06:00;996;;;6.3;100
12722;BME280;6425;50.316;8.114;2024-02-21T05:09:00;996;;;6.4;100
12722;BME280;6425;50.316;8.114;2024-02-21T05:12:00;996;;;6.4;100
12722;BME280;6425;50.316;8.114;2024-02-21T05:15:00;996;;;6.3;100
12722;BME280;6425;50.316;8.114;2024-02-21T05:18:00;996;;;6.3;100
12722;BME280;6425;50.316;8.114;2024-02-21T05:21:00;996;;;6.3;100
12722;BME280;6425;50.316;8.114;2024-02-21T05:24:00;996;;;6.6;100
12722;BME280;6425;50.316;8.114;2024-02-21T05:27:00;996;;;6.9;100
12722;BME280;6425;50.316;8.114;2024-02-21T05:30:00;996;;;7.2;100
12722;BME280;6425;50.316;8.114;2024-02-21T05:33:03;996;;;7.3;100
12722;BME280;6425;50.316;8.114;2024-02-21T05:36:00;996;;;7.5;100
12722;BME280;6425;50.316;8.114;2024-02-21T05:39:01;996;;;7.2;100
12722;BME280;6425;50.316;8.114;2024-02-21T05:42:00;996;;;6.9;100
12722;BME280;6425;50.316;8.114;2024-02-21T05:45:00;996;;;6.9;100
12722;BME280;6425;50.316;8.114;2024-02-21T05:48:00;996;;;6.9;100
12722;BME280;6425;50.316;8.114;2024-02-21T05:51:01;996;;;6.8;100
12722;BME280;6425;50.316;8.114;2024-02-21T05:54:00;996;;;6.6;100
12722;BME280;6425;50.316;8.114;2024-02-21T05:57:00;996;;;6.3;100
12722;BME280;6425;50.316;8.114;2024-02-21T06:00:00;996;;;6;100
12722;BME280;6425;50.316;8.114;2024-02-21T06:03:00;996;;;6;100
12722;BME280;6425;50.316;8.114;2024-02-21T06:06:00;996;;;6;100
12722;BME280;6425;50.316;8.114;2024-02-21T06:09:00;996;;;6.2;100
12722;BME280;6425;50.316;8.114;2024-02-21T06:12:00;996;;;6.2;100
12722;BME280;6425;50.316;8.114;2024-02-21T06:15:00;996;;;6.3;100
12722;BME280;6425;50.316;8.114;2024-02-21T06:18:00;996;;;6.3;100
12722;BME280;6425;50.316;8.114;2024-02-21T06:21:00;996;;;6.2;100
12722;BME280;6425;50.316;8.114;2024-02-21T06:24:00;996;;;6.3;100
12722;BME280;6425;50.316;8.114;2024-02-21T06:27:00;996;;;6.4;100
12722;BME280;6425;50.316;8.114;2024-02-21T06:30:00;995;;;6.6;100
12722;BME280;6425;50.316;8.114;2024-02-21T06:33:00;995;;;6.4;100
12722;BME280;6425;50.316;8.114;2024-02-21T06:36:00;996;;;6.3;100
12722;BME280;6425;50.316;8.114;2024-02-21T06:39:00;995;;;6.4;100
12722;BME280;6425;50.316;8.114;2024-02-21T06:42:00;996;;;6.2;100
12722;BME280;6425;50.316;8.114;2024-02-21T06:45:00;996;;;6.2;100
12722;BME280;6425;50.316;8.114;2024-02-21T06:48:00;996;;;6.2;100
12722;BME280;6425;50.316;8.114;2024-02-21T06:51:00;996;;;6.3;100
12722;BME280;6425;50.316;8.114;2024-02-21T06:54:00;995;;;6.2;100
12722;BME280;6425;50.316;8.114;2024-02-21T06:57:01;996;;;6.4;100
12722;BME280;6425;50.316;8.114;2024-02-21T07:00:00;996;;;6.2;100
12722;BME280;6425;50.316;8.114;2024-02-21T07:03:01;996;;;6.3;100
12722;BME280;6425;50.316;8.114;2024-02-21T07:06:00;996;;;6.8;100
12722;BME280;6425;50.316;8.114;2024-02-21T07:09:00;995;;;7.1;100
12722;BME280;6425;50.316;8.114;2024-02-21T07:12:00;995;;;7.3;100
12722;BME280;6425;50.316;8.114;2024-02-21T07:15:01;996;;;7.3;100
12722;BME280;6425;50.316;8.114;2024-02-21T07:18:00;996;;;7.4;100
12722;BME280;6425;50.316;8.114;2024-02-21T07:21:00;996;;;7.4;100
12722;BME280;6425;50.316;8.114;2024-02-21T07:24:00;996;;;6.9;100
12722;BME280;6425;50.316;8.114;2024-02-21T07:27:00;996;;;6.6;100
12722;BME280;6425;50.316;8.114;2024-02-21T07:30:00;996;;;6.1;100
12722;BME280;6425;50.316;8.114;2024-02-21T07:33:00;996;;;6.2;100
12722;BME280;6425;50.316;8.114;2024-02-21T07:36:00;996;;;6.3;100
12722;BME280;6425;50.316;8.114;2024-02-21T07:39:00;996;;;6.4;100
12722;BME280;6425;50.316;8.114;2024-02-21T07:42:00;996;;;6.3;100
12722;BME280;6425;50.316;8.114;2024-02-21T07:45:00;996;;;6.4;100
12722;BME280;6425;50.316;8.114;2024-02-21T07:48:00;996;;;6.3;100
12722;BME280;6425;50.316;8.114;2024-02-21T07:51:00;996;;;6.3;100
12722;BME280;6425;50.316;8.114;2024-02-21T07:54:00;996;;;6.4;100
12722;BME280;6425;50.316;8.114;2024-02-21T07:57:00;996;;;6.4;100
12722;BME280;6425;50.316;8.114;2024-02-21T08:00:00;996;;;6.4;100
12722;BME280;6425;50.316;8.114;2024-02-21T08:03:00;995;;;6.4;100
12722;BME280;6425;50.316;8.114;2024-02-21T08:06:00;995;;;6.8;100
12722;BME280;6425;50.316;8.114;2024-02-21T08:09:00;995;;;6.7;100
12722;BME280;6425;50.316;8.114;2024-02-21T08:12:00;995;;;6.4;100
12722;BME280;6425;50.316;8.114;2024-02-21T08:15:00;995;;;6.7;100
12722;BME280;6425;50.316;8.114;2024-02-21T08:18:00;995;;;6.6;100
12722;BME280;6425;50.316;8.114;2024-02-21T08:21:00;995;;;6.6;100
12722;BME280;6425;50.316;8.114;2024-02-21T08:24:00;995;;;7.2;100
12722;BME280;6425;50.316;8.114;2024-02-21T08:27:00;995;;;7;100
12722;BME280;6425;50.316;8.114;2024-02-21T08:30:00;995;;;7;100
12722;BME280;6425;50.316;8.114;2024-02-21T08:33:00;995;;;7;100
12722;BME280;6425;50.316;8.114;2024-02-21T08:36:00;995;;;6.8;100
12722;BME280;6425;50.316;8.114;2024-02-21T08:39:02;995;;;6.5;100
12722;BME280;6425;50.316;8.114;2024-02-21T08:42:00;995;;;6.8;100
12722;BME280;6425;50.316;8.114;2024-02-21T08:45:00;995;;;6.7;100
12722;BME280;6425;50.316;8.114;2024-02-21T08:48:00;995;;;6.8;100
12722;BME280;6425;50.316;8.114;2024-02-21T08:51:01;995;;;7;100
12722;BME280;6425;50.316;8.114;2024-02-21T08:54:00;995;;;6.7;100
12722;BME280;6425;50.316;8.114;2024-02-21T08:57:00;995;;;6.6;100
12722;BME280;6425;50.316;8.114;2024-02-21T09:00:00;995;;;6.7;100
12722;BME280;6425;50.316;8.114;2024-02-21T09:03:00;995;;;6.6;100
12722;BME280;6425;50.316;8.114;2024-02-21T09:06:00;995;;;6.6;100
12722;BME280;6425;50.316;8.114;2024-02-21T09:09:00;994;;;6.6;100
12722;BME280;6425;50.316;8.114;2024-02-21T09:12:00;994;;;6.4;100
12722;BME280;6425;50.316;8.114;2024-02-21T09:15:00;994;;;6.7;100
12722;BME280;6425;50.316;8.114;2024-02-21T09:18:00;994;;;7.1;100
12722;BME280;6425;50.316;8.114;2024-02-21T09:21:00;994;;;6.9;100
12722;BME280;6425;50.316;8.114;2024-02-21T09:24:00;994;;;6.8;100
12722;BME280;6425;50.316;8.114;2024-02-21T09:27:00;994;;;6.8;100
12722;BME280;6425;50.316;8.114;2024-02-21T09:30:00;994;;;6.8;100
12722;BME280;6425;50.316;8.114;2024-02-21T09:33:00;994;;;6.8;100
12722;BME280;6425;50.316;8.114;2024-02-21T09:36:00;994;;;7;100
12722;BME280;6425;50.316;8.114;2024-02-21T09:39:00;994;;;6.7;100
12722;BME280;6425;50.316;8.114;2024-02-21T09:42:05;994;;;7;100
12722;BME280;6425;50.316;8.114;2024-02-21T09:45:00;994;;;6.9;100
12722;BME280;6425;50.316;8.114;2024-02-21T09:48:04;994;;;6.9;100
12722;BME280;6425;50.316;8.114;2024-02-21T09:51:00;994;;;7.4;100
12722;BME280;6425;50.316;8.114;2024-02-21T09:54:00;994;;;7.5;100
12722;BME280;6425;50.316;8.114;2024-02-21T09:57:00;994;;;7.7;100
12722;BME280;6425;50.316;8.114;2024-02-21T10:00:00;994;;;7.7;100
12722;BME280;6425;50.316;8.114;2024-02-21T10:03:01;994;;;7.3;100
12722;BME280;6425;50.316;8.114;2024-02-21T10:06:00;994;;;7.4;100
12722;BME280;6425;50.316;8.114;2024-02-21T10:09:00;994;;;7.2;100
12722;BME280;6425;50.316;8.114;2024-02-21T10:12:07;994;;;7.2;100
12722;BME280;6425;50.316;8.114;2024-02-21T10:15:02;994;;;7.2;100
12722;BME280;6425;50.316;8.114;2024-02-21T10:18:01;994;;;7.3;100
12722;BME280;6425;50.316;8.114;2024-02-21T10:21:01;994;;;7.3;100
12722;BME280;6425;50.316;8.114;2024-02-21T10:24:00;994;;;7.2;100
12722;BME280;6425;50.316;8.114;2024-02-21T10:27:01;994;;;7.6;100
12722;BME280;6425;50.316;8.114;2024-02-21T10:30:01;994;;;7.4;100
12722;BME280;6425;50.316;8.114;2024-02-21T10:33:00;994;;;7.7;100
12722;BME280;6425;50.316;8.114;2024-02-21T10:36:08;994;;;7.5;100
12722;BME280;6425;50.316;8.114;2024-02-21T10:39:00;993;;;7.7;100
12722;BME280;6425;50.316;8.114;2024-02-21T10:42:00;993;;;7.5;100
12722;BME280;6425;50.316;8.114;2024-02-21T10:45:00;993;;;8;100
12722;BME280;6425;50.316;8.114;2024-02-21T10:48:01;993;;;8.3;100
12722;BME280;6425;50.316;8.114;2024-02-21T10:51:01;993;;;8;100
12722;BME280;6425;50.316;8.114;2024-02-21T10:54:02;993;;;8.2;100
12722;BME280;6425;50.316;8.114;2024-02-21T10:57:00;993;;;8.3;100
12722;BME280;6425;50.316;8.114;2024-02-21T11:00:00;993;;;8.5;100
12722;BME280;6425;50.316;8.114;2024-02-21T11:03:00;993;;;9.2;100
12722;BME280;6425;50.316;8.114;2024-02-21T11:06:00;993;;;8.5;100
12722;BME280;6425;50.316;8.114;2024-02-21T11:09:00;993;;;8.7;100
12722;BME280;6425;50.316;8.114;2024-02-21T11:12:01;993;;;8.8;100
12722;BME280;6425;50.316;8.114;2024-02-21T11:15:03;993;;;9;100
12722;BME280;6425;50.316;8.114;2024-02-21T11:18:01;993;;;8.9;100
12722;BME280;6425;50.316;8.114;2024-02-21T11:21:00;993;;;9;100
12722;BME280;6425;50.316;8.114;2024-02-21T11:24:00;993;;;8.5;100
12722;BME280;6425;50.316;8.114;2024-02-21T11:27:08;993;;;8.7;100
12722;BME280;6425;50.316;8.114;2024-02-21T11:30:00;992;;;8.4;100
12722;BME280;6425;50.316;8.114;2024-02-21T11:33:00;993;;;8.7;100
12722;BME280;6425;50.316;8.114;2024-02-21T11:36:00;992;;;8.4;100
12722;BME280;6425;50.316;8.114;2024-02-21T11:39:03;992;;;8.7;100
12722;BME280;6425;50.316;8.114;2024-02-21T11:42:01;992;;;8.9;100
12722;BME280;6425;50.316;8.114;2024-02-21T11:45:00;992;;;8.9;100
12722;BME280;6425;50.316;8.114;2024-02-21T11:48:00;992;;;9;100
12722;BME280;6425;50.316;8.114;2024-02-21T11:51:00;992;;;9;100
12722;BME280;6425;50.316;8.114;2024-02-21T11:54:00;992;;;9.2;100
12722;BME280;6425;50.316;8.114;2024-02-21T11:57:00;992;;;9.1;100
12722;BME280;6425;50.316;8.114;2024-02-21T12:00:09;992;;;9.3;100
12722;BME280;6425;50.316;8.114;2024-02-21T12:03:00;992;;;9.2;100
12722;BME280;6425;50.316;8.114;2024-02-21T12:06:00;992;;;9.4;100
12722;BME280;6425;50.316;8.114;2024-02-21T12:09:00;992;;;9.5;100
12722;BME280;6425;50.316;8.114;2024-02-21T12:12:00;992;;;9.8;100
12722;BME280;6425;50.316;8.114;2024-02-21T12:15:00;991;;;10.2;100
12722;BME280;6425;50.316;8.114;2024-02-21T12:18:00;991;;;10.1;100
12722;BME280;6425;50.316;8.114;2024-02-21T12:21:00;991;;;10.5;100
12722;BME280;6425;50.316;8.114;2024-02-21T12:24:00;991;;;9.8;100
12722;BME280;6425;50.316;8.114;2024-02-21T12:27:00;991;;;9.4;100
12722;BME280;6425;50.316;8.114;2024-02-21T12:30:00;991;;;9.4;100
12722;BME280;6425;50.316;8.114;2024-02-21T12:33:00;991;;;9.6;100
12722;BME280;6425;50.316;8.114;2024-02-21T12:36:00;991;;;9.2;100
12722;BME280;6425;50.316;8.114;2024-02-21T12:39:00;991;;;9.2;100
12722;BME280;6425;50.316;8.114;2024-02-21T12:42:02;991;;;8.9;100
12722;BME280;6425;50.316;8.114;2024-02-21T12:45:00;991;;;9.3;100
12722;BME280;6425;50.316;8.114;2024-02-21T12:48:00;991;;;9.6;100
12722;BME280;6425;50.316;8.114;2024-02-21T12:51:00;991;;;9.7;100
12722;BME280;6425;50.316;8.114;2024-02-21T12:54:00;991;;;9.6;100
12722;BME280;6425;50.316;8.114;2024-02-21T12:57:00;991;;;9.6;100
12722;BME280;6425;50.316;8.114;2024-02-21T13:00:00;991;;;10;100
12722;BME280;6425;50.316;8.114;2024-02-21T13:03:00;990;;;10.6;100
12722;BME280;6425;50.316;8.114;2024-02-21T13:06:01;990;;;10.3;100
12722;BME280;6425;50.316;8.114;2024-02-21T13:09:00;990;;;9.9;100
12722;BME280;6425;50.316;8.114;2024-02-21T13:12:00;990;;;9.8;100
12722;BME280;6425;50.316;8.114;2024-02-21T13:15:00;990;;;10.1;100
12722;BME280;6425;50.316;8.114;2024-02-21T13:18:01;990;;;10.3;100
12722;BME280;6425;50.316;8.114;2024-02-21T13:21:00;990;;;10.1;100
12722;BME280;6425;50.316;8.114;2024-02-21T13:24:00;990;;;10;100
12722;BME280;6425;50.316;8.114;2024-02-21T13:27:00;990;;;10.1;100
12722;BME280;6425;50.316;8.114;2024-02-21T13:30:00;990;;;10.5;100
12722;BME280;6425;50.316;8.114;2024-02-21T13:33:00;990;;;10.7;100
12722;BME280;6425;50.316;8.114;2024-02-21T13:36:00;990;;;11;100
12722;BME280;6425;50.316;8.114;2024-02-21T13:39:00;990;;;10.9;100
12722;BME280;6425;50.316;8.114;2024-02-21T13:42:02;990;;;11;100
12722;BME280;6425;50.316;8.114;2024-02-21T13:45:00;990;;;11;100
12722;BME280;6425;50.316;8.114;2024-02-21T13:48:00;990;;;10.2;100
12722;BME280;6425;50.316;8.114;2024-02-21T13:51:00;989;;;10.2;100
12722;BME280;6425;50.316;8.114;2024-02-21T13:54:00;989;;;10.2;100
12722;BME280;6425;50.316;8.114;2024-02-21T13:57:00;989;;;10.4;100
12722;BME280;6425;50.316;8.114;2024-02-21T14:00:00;989;;;10.1;100
12722;BME280;6425;50.316;8.114;2024-02-21T14:03:00;989;;;10.1;100
12722;BME280;6425;50.316;8.114;2024-02-21T14:06:01;989;;;10.7;100
12722;BME280;6425;50.316;8.114;2024-02-21T14:09:00;989;;;10.9;100
12722;BME280;6425;50.316;8.114;2024-02-21T14:12:00;989;;;10.8;100
12722;BME280;6425;50.316;8.114;2024-02-21T14:15:00;989;;;9.8;100
12722;BME280;6425;50.316;8.114;2024-02-21T14:18:02;989;;;10.4;100
12722;BME280;6425;50.316;8.114;2024-02-21T14:21:00;989;;;10.4;100
12722;BME280;6425;50.316;8.114;2024-02-21T14:24:00;989;;;10;100
12722;BME280;6425;50.316;8.114;2024-02-21T14:27:00;989;;;10.3;100
12722;BME280;6425;50.316;8.114;2024-02-21T14:30:00;989;;;10.4;100
12722;BME280;6425;50.316;8.114;2024-02-21T14:33:00;988;;;10.4;100
12722;BME280;6425;50.316;8.114;2024-02-21T14:36:00;988;;;10.6;100
12722;BME280;6425;50.316;8.114;2024-02-21T14:39:00;989;;;10.3;100
12722;BME280;6425;50.316;8.114;2024-02-21T14:42:01;988;;;10.1;100
12722;BME280;6425;50.316;8.114;2024-02-21T14:45:00;988;;;10.4;100
12722;BME280;6425;50.316;8.114;2024-02-21T14:48:00;988;;;10.4;100
12722;BME280;6425;50.316;8.114;2024-02-21T14:51:00;988;;;10.4;100
12722;BME280;6425;50.316;8.114;2024-02-21T14:54:00;988;;;10.3;100
12722;BME280;6425;50.316;8.114;2024-02-21T14:57:00;988;;;9.9;100
12722;BME280;6425;50.316;8.114;2024-02-21T15:00:00;988;;;10;100
12722;BME280;6425;50.316;8.114;2024-02-21T15:03:00;988;;;10;100
12722;BME280;6425;50.316;8.114;2024-02-21T15:06:00;988;;;10;100
12722;BME280;6425;50.316;8.114;2024-02-21T15:09:00;988;;;9.6;100
12722;BME280;6425;50.316;8.114;2024-02-21T15:12:00;987;;;9.7;100
12722;BME280;6425;50.316;8.114;2024-02-21T15:15:00;987;;;9.6;100
12722;BME280;6425;50.316;8.114;2024-02-21T15:18:00;987;;;9.9;100
12722;BME280;6425;50.316;8.114;2024-02-21T15:21:00;987;;;9.8;100
12722;BME280;6425;50.316;8.114;2024-02-21T15:24:00;987;;;9.8;100
12722;BME280;6425;50.316;8.114;2024-02-21T15:27:00;987;;;9.9;100
12722;BME280;6425;50.316;8.114;2024-02-21T15:30:01;987;;;10.2;100
12722;BME280;6425;50.316;8.114;2024-02-21T15:33:00;987;;;10.2;100
12722;BME280;6425;50.316;8.114;2024-02-21T15:36:00;987;;;9.9;100
12722;BME280;6425;50.316;8.114;2024-02-21T15:39:00;987;;;9.6;100
12722;BME280;6425;50.316;8.114;2024-02-21T15:42:00;987;;;9.7;100
12722;BME280;6425;50.316;8.114;2024-02-21T15:45:00;987;;;9.6;100
12722;BME280;6425;50.316;8.114;2024-02-21T15:48:00;987;;;9.8;100
12722;BME280;6425;50.316;8.114;2024-02-21T15:51:00;987;;;9.6;100
12722;BME280;6425;50.316;8.114;2024-02-21T15:54:00;987;;;9.8;100
12722;BME280;6425;50.316;8.114;2024-02-21T15:57:00;987;;;9.4;100
12722;BME280;6425;50.316;8.114;2024-02-21T16:00:00;987;;;9.5;100
12722;BME280;6425;50.316;8.114;2024-02-21T16:03:00;987;;;9.8;100
12722;BME280;6425;50.316;8.114;2024-02-21T16:06:00;987;;;9.6;100
12722;BME280;6425;50.316;8.114;2024-02-21T16:09:00;987;;;9.7;100
12722;BME280;6425;50.316;8.114;2024-02-21T16:12:00;987;;;9.5;100
12722;BME280;6425;50.316;8.114;2024-02-21T16:15:00;986;;;9.6;100
12722;BME280;6425;50.316;8.114;2024-02-21T16:18:00;987;;;9.1;100
12722;BME280;6425;50.316;8.114;2024-02-21T16:21:00;987;;;8.8;100
12722;BME280;6425;50.316;8.114;2024-02-21T16:24:00;986;;;8.7;100
12722;BME280;6425;50.316;8.114;2024-02-21T16:27:00;986;;;8.8;100
12722;BME280;6425;50.316;8.114;2024-02-21T16:30:01;986;;;8.9;100
12722;BME280;6425;50.316;8.114;2024-02-21T16:33:00;986;;;9.1;100
12722;BME280;6425;50.316;8.114;2024-02-21T16:36:00;986;;;9.2;100
12722;BME280;6425;50.316;8.114;2024-02-21T16:39:00;986;;;9.2;100
12722;BME280;6425;50.316;8.114;2024-02-21T16:42:00;986;;;8.9;100
12722;BME280;6425;50.316;8.114;2024-02-21T16:45:00;986;;;8.7;100
12722;BME280;6425;50.316;8.114;2024-02-21T16:48:00;986;;;8.8;100
12722;BME280;6425;50.316;8.114;2024-02-21T16:51:00;986;;;8.8;100
12722;BME280;6425;50.316;8.114;2024-02-21T16:54:00;986;;;8.8;100
12722;BME280;6425;50.316;8.114;2024-02-21T16:57:00;986;;;8.8;100
12722;BME280;6425;50.316;8.114;2024-02-21T17:00:00;986;;;8.8;100
12722;BME280;6425;50.316;8.114;2024-02-21T17:03:00;986;;;8.8;100
12722;BME280;6425;50.316;8.114;2024-02-21T17:06:00;986;;;8.6;100
12722;BME280;6425;50.316;8.114;2024-02-21T17:09:00;986;;;8.8;100
12722;BME280;6425;50.316;8.114;2024-02-21T17:12:00;986;;;8.8;100
12722;BME280;6425;50.316;8.114;2024-02-21T17:15:00;986;;;8.7;100
12722;BME280;6425;50.316;8.114;2024-02-21T17:18:00;986;;;8.6;100
12722;BME280;6425;50.316;8.114;2024-02-21T17:21:00;986;;;8.6;100
12722;BME280;6425;50.316;8.114;2024-02-21T17:24:00;986;;;8.6;100
12722;BME280;6425;50.316;8.114;2024-02-21T17:27:00;985;;;8.5;100
12722;BME280;6425;50.316;8.114;2024-02-21T17:30:01;985;;;8.6;100
12722;BME280;6425;50.316;8.114;2024-02-21T17:33:00;985;;;8.5;100
12722;BME280;6425;50.316;8.114;2024-02-21T17:36:00;985;;;8.5;100
12722;BME280;6425;50.316;8.114;2024-02-21T17:39:00;985;;;8.7;100
12722;BME280;6425;50.316;8.114;2024-02-21T17:42:00;985;;;8.8;100
12722;BME280;6425;50.316;8.114;2024-02-21T17:45:00;985;;;8.7;100
12722;BME280;6425;50.316;8.114;2024-02-21T17:48:00;985;;;8.8;100
12722;BME280;6425;50.316;8.114;2024-02-21T17:51:00;985;;;9;100
12722;BME280;6425;50.316;8.114;2024-02-21T17:54:00;985;;;9;100
12722;BME280;6425;50.316;8.114;2024-02-21T17:57:00;985;;;8.8;100
12722;BME280;6425;50.316;8.114;2024-02-21T18:00:00;985;;;8.8;100
12722;BME280;6425;50.316;8.114;2024-02-21T18:03:00;985;;;8.9;100
12722;BME280;6425;50.316;8.114;2024-02-21T18:06:00;985;;;8.9;100
12722;BME280;6425;50.316;8.114;2024-02-21T18:09:00;985;;;8.9;100
12722;BME280;6425;50.316;8.114;2024-02-21T18:12:00;985;;;9.1;100
12722;BME280;6425;50.316;8.114;2024-02-21T18:15:00;985;;;9.3;100
12722;BME280;6425;50.316;8.114;2024-02-21T18:18:01;985;;;8.8;100